San Miguel, Colorado
Current Conditions -  °F | °C
As of 4:52 PM on Friday 19 Dec 2014 (Local Time) from KALS Reporting Station
Clear Clear  
Wind Chill: 17°   Ceiling: Unl
Heat Index: 25°   Visibility: 10mi
Dew Point: 14°   Wind: 7mph
Humidity: 63%   Direction: 110°ESE
Pressure: 30.13"   Gusts: NA
Location:  37.1816°N, 106.262°W
Report Text: KALS 192352Z AUTO 11006KT 10SM CLR M04/M10 A3013 RMK AO2 SLP266 T10391100 10017 21050 51006
Loading
Personal Weather Stations






























Interactive Weather Map New forecast layout! Learn more

10-Day Weather Forecast

Advertisements
Track Severe Weather on mobile